Time;durP1;ratioP1;P1;durP2;ratioP2;P2;SDS_P1;SDS_P2;PMS_P1;PMS_P2;Temp;Humidity;BMP_temperature;BMP_pressure;BME280_temperature;BME280_humidity;BME280_pressure;Samples;Min_cycle;Max_cycle;Signal;HPM_P1;HPM_P2
2023/10/29 00:01:29;;;;;;;11.10;6.35;;;;;;;13.72;71.64;99243.63;4966554;28;20061;-95
2023/10/29 00:03:55;;;;;;;13.45;5.90;;;;;;;13.60;71.41;99232.44;4950678;28;20493;-95
2023/10/29 00:06:24;;;;;;;10.43;5.47;;;;;;;13.54;71.82;99220.09;4950729;28;20026;-95
2023/10/29 00:08:53;;;;;;;11.43;6.22;;;;;;;13.43;72.29;99211.31;4966501;28;20409;-95
2023/10/29 00:11:18;;;;;;;11.40;5.63;;;;;;;13.40;72.29;99213.78;4965402;28;20065;-96
2023/10/29 00:13:44;;;;;;;13.88;5.90;;;;;;;13.47;72.64;99252.91;4949678;28;20026;-96
2023/10/29 00:16:11;;;;;;;11.55;6.03;;;;;;;13.42;73.05;99254.88;4966527;28;20053;-94
2023/10/29 00:18:36;;;;;;;11.60;5.93;;;;;;;13.38;72.92;99240.31;4967518;28;20027;-93
2023/10/29 00:21:05;;;;;;;11.32;5.72;;;;;;;13.44;72.41;99255.38;4966223;28;20405;-95
2023/10/29 00:23:31;;;;;;;13.18;6.90;;;;;;;13.29;72.84;99229.34;4949668;28;20101;-96
2023/10/29 00:25:57;;;;;;;9.80;5.65;;;;;;;13.30;72.51;99234.47;4949602;28;20469;-96
2023/10/29 00:28:23;;;;;;;14.02;5.90;;;;;;;13.37;72.57;99241.41;4967590;28;20515;-95
2023/10/29 00:30:49;;;;;;;14.05;6.07;;;;;;;13.37;72.52;99239.50;4966327;28;20465;-94
2023/10/29 00:33:15;;;;;;;12.10;5.68;;;;;;;13.31;72.66;99235.25;4966421;28;20056;-94
2023/10/29 00:35:40;;;;;;;14.25;5.90;;;;;;;13.26;72.99;99235.28;4949018;28;20022;-95
2023/10/29 00:38:06;;;;;;;11.35;5.50;;;;;;;13.31;73.17;99240.66;4949411;28;20038;-94
2023/10/29 00:40:31;;;;;;;8.57;5.22;;;;;;;13.34;73.24;99254.44;4950079;28;20026;-94
2023/10/29 00:43:00;;;;;;;10.93;5.70;;;;;;;13.18;73.62;99233.22;4964466;28;20018;-95
2023/10/29 00:45:25;;;;;;;12.93;5.97;;;;;;;13.23;73.19;99241.28;4949214;28;20102;-92
2023/10/29 00:47:51;;;;;;;9.85;5.50;;;;;;;13.31;73.10;99251.50;4965025;28;20030;-94
2023/10/29 00:50:17;;;;;;;9.38;5.47;;;;;;;13.21;73.69;99252.38;4964719;28;20033;-94
2023/10/29 00:52:42;;;;;;;10.68;5.75;;;;;;;13.02;73.47;99246.13;4965186;28;20082;-92
2023/10/29 00:55:08;;;;;;;11.88;5.15;;;;;;;12.98;73.49;99248.59;4947868;28;20054;-93
2023/10/29 00:57:35;;;;;;;10.60;5.22;;;;;;;12.90;73.48;99249.22;4948067;28;20520;-93
2023/10/29 01:00:01;;;;;;;8.80;4.63;;;;;;;12.98;73.06;99243.19;4949136;28;20092;-94
2023/10/29 01:02:27;;;;;;;9.70;5.15;;;;;;;13.08;73.63;99262.00;4964836;28;20023;-95
2023/10/29 01:04:55;;;;;;;9.07;4.82;;;;;;;12.94;73.35;99250.25;4949840;28;20497;-93
2023/10/29 01:07:25;;;;;;;9.27;4.55;;;;;;;12.99;73.61;99262.91;4964522;28;20018;-95
2023/10/29 01:09:50;;;;;;;11.13;5.28;;;;;;;13.00;73.87;99272.63;4965271;28;20022;-94
2023/10/29 01:12:17;;;;;;;10.52;6.03;;;;;;;12.80;73.73;99239.31;4948668;28;20114;-94
2023/10/29 01:14:43;;;;;;;10.63;5.03;;;;;;;12.98;74.07;99274.81;4948178;28;20022;-93
2023/10/29 01:17:09;;;;;;;10.52;4.95;;;;;;;12.79;74.09;99258.53;4947403;28;20023;-94
2023/10/29 01:19:34;;;;;;;14.15;4.78;;;;;;;12.81;73.82;99267.16;4964107;28;20464;-94
2023/10/29 01:22:00;;;;;;;10.55;5.00;;;;;;;12.77;73.66;99264.22;4947550;28;20033;-94
2023/10/29 01:24:26;;;;;;;7.00;4.85;;;;;;;12.83;73.76;99273.88;4948216;28;20041;-94
2023/10/29 01:26:53;;;;;;;6.97;4.88;;;;;;;12.81;73.86;99267.97;4947983;28;20089;-95
2023/10/29 01:29:19;;;;;;;10.90;5.40;;;;;;;12.61;74.17;99252.75;4964072;28;20084;-96
2023/10/29 01:31:48;;;;;;;9.38;5.38;;;;;;;12.64;74.30;99256.78;4949258;28;20022;-95
2023/10/29 01:34:14;;;;;;;12.43;5.53;;;;;;;12.71;74.28;99276.97;4948448;28;20488;-95
2023/10/29 01:36:40;;;;;;;11.00;5.38;;;;;;;12.54;74.51;99263.88;4963412;28;20073;-95
2023/10/29 01:39:06;;;;;;;9.48;5.32;;;;;;;12.63;74.35;99271.38;4964474;28;20074;-95
2023/10/29 01:41:32;;;;;;;13.52;5.28;;;;;;;12.54;74.22;99263.88;4947476;28;20022;-95
2023/10/29 01:43:59;;;;;;;8.38;5.00;;;;;;;12.55;74.48;99267.38;4947418;28;20039;-95
2023/10/29 01:46:27;;;;;;;9.57;5.05;;;;;;;12.60;74.43;99280.06;4980693;28;20030;-94
2023/10/29 01:48:53;;;;;;;14.25;5.20;;;;;;;12.48;74.88;99264.22;4964693;28;20027;-94
2023/10/29 01:51:19;;;;;;;8.10;4.88;;;;;;;12.46;74.50;99288.00;4965273;28;20057;-93
2023/10/29 01:53:44;;;;;;;7.78;4.90;;;;;;;12.34;74.41;99272.16;4964581;28;20018;-94
2023/10/29 01:56:10;;;;;;;10.23;4.97;;;;;;;12.38;74.23;99275.09;4948071;28;20022;-92
2023/10/29 01:58:35;;;;;;;7.60;4.90;;;;;;;12.34;74.08;99264.84;4948125;28;20053;-94
2023/10/29 02:01:01;;;;;;;11.00;5.20;;;;;;;12.49;74.58;99295.53;4964495;28;20026;-96
2023/10/29 02:03:27;;;;;;;7.70;4.60;;;;;;;12.38;74.75;99285.91;4948659;28;20054;-93
2023/10/29 02:05:54;;;;;;;9.63;5.30;;;;;;;12.32;74.71;99285.94;4965564;28;20095;-93
2023/10/29 02:08:33;;;;;;;7.55;5.20;;;;;;;12.16;74.89;99270.13;4979851;28;20022;-92
2023/10/29 02:10:59;;;;;;;8.77;5.35;;;;;;;12.24;75.19;99300.06;4971954;28;20077;-96
2023/10/29 02:13:24;;;;;;;8.88;5.28;;;;;;;12.12;74.88;99270.72;4956484;28;20128;-96
2023/10/29 02:16:39;;;;;;;9.40;5.22;;;;;;;12.02;75.22;99261.88;4957039;28;20057;-96
2023/10/29 02:19:04;;;;;;;7.45;4.95;;;;;;;12.17;75.16;99290.66;4986150;28;20045;-94
2023/10/29 02:21:30;;;;;;;15.43;5.97;;;;;;;12.08;75.17;99283.16;4970461;28;20062;-95
2023/10/29 02:24:00;;;;;;;11.55;5.30;;;;;;;12.08;75.17;99275.06;4970693;28;20504;-95
2023/10/29 02:26:27;;;;;;;11.13;5.60;;;;;;;12.15;75.66;99293.63;4948570;28;20033;-95
2023/10/29 02:28:58;;;;;;;11.10;5.43;;;;;;;12.14;75.41;99300.13;4975655;28;20030;-96
2023/10/29 02:31:27;;;;;;;9.52;4.82;;;;;;;12.03;75.42;99293.16;4969850;28;20080;-95
2023/10/29 02:33:53;;;;;;;10.52;5.53;;;;;;;12.00;75.35;99291.84;4949075;28;20026;-96
2023/10/29 02:36:21;;;;;;;9.70;5.85;;;;;;;12.12;74.99;99297.69;4951777;28;20029;-96
2023/10/29 02:38:46;;;;;;;10.52;5.43;;;;;;;12.26;74.78;99307.84;4966923;28;20026;-95
2023/10/29 02:41:12;;;;;;;8.73;4.97;;;;;;;12.30;74.43;99293.50;4951371;28;20394;-96
2023/10/29 02:43:41;;;;;;;8.43;4.95;;;;;;;12.36;74.37;99291.56;4967243;28;20484;-94
2023/10/29 02:46:06;;;;;;;7.28;3.70;;;;;;;12.46;74.06;99307.69;4966687;28;20058;-94
2023/10/29 02:48:32;;;;;;;9.65;4.95;;;;;;;12.33;74.50;99309.16;4966616;28;20066;-95
2023/10/29 02:50:57;;;;;;;7.70;4.72;;;;;;;12.22;74.20;99296.84;4951598;28;20038;-94
2023/10/29 02:53:23;;;;;;;7.65;4.97;;;;;;;12.24;74.47;99304.63;4952363;28;20030;-94
2023/10/29 02:55:48;;;;;;;11.02;4.70;;;;;;;12.17;74.62;99294.16;4968711;28;20088;-95
2023/10/29 02:58:14;;;;;;;7.85;4.82;;;;;;;12.20;74.47;99315.19;4951532;28;20026;-93
2023/10/29 03:00:40;;;;;;;9.38;5.00;;;;;;;12.02;74.71;99286.97;4968346;28;20026;-94
2023/10/29 03:03:06;;;;;;;8.65;4.82;;;;;;;12.06;74.41;99290.72;4951867;28;20401;-93
2023/10/29 03:05:32;;;;;;;10.98;5.53;;;;;;;12.03;74.12;99293.16;4952520;28;20050;-94
2023/10/29 03:07:59;;;;;;;9.68;4.13;;;;;;;11.97;73.98;99305.06;4966998;28;20089;-94
2023/10/29 03:10:25;;;;;;;7.25;4.60;;;;;;;11.85;74.05;99289.19;4968166;28;20046;-94
2023/10/29 03:12:51;;;;;;;6.85;4.70;;;;;;;11.94;74.49;99311.84;4951199;28;20049;-94
2023/10/29 03:15:17;;;;;;;8.35;4.70;;;;;;;11.91;74.53;99315.09;4967203;28;20030;-94
2023/10/29 03:17:43;;;;;;;8.40;4.90;;;;;;;11.90;74.40;99310.78;4950465;28;20586;-94
2023/10/29 03:20:09;;;;;;;9.20;5.07;;;;;;;11.83;74.60;99297.59;4950320;28;20019;-95
2023/10/29 03:22:34;;;;;;;8.82;4.95;;;;;;;11.81;75.01;99304.34;4966869;28;20092;-93
2023/10/29 03:25:00;;;;;;;8.02;4.40;;;;;;;11.83;75.22;99300.28;4967049;28;20089;-93
2023/10/29 03:27:26;;;;;;;7.05;4.50;;;;;;;11.82;75.10;99305.94;4950492;28;20026;-93
2023/10/29 03:29:51;;;;;;;12.60;4.00;;;;;;;11.81;75.73;99321.34;4966166;28;20034;-94
2023/10/29 03:32:17;;;;;;;5.78;3.63;;;;;;;11.73;75.85;99303.81;4950428;28;20026;-93
2023/10/29 03:34:42;;;;;;;6.05;3.42;;;;;;;11.67;75.34;99299.53;4966088;28;20033;-93
2023/10/29 03:37:08;;;;;;;7.22;3.60;;;;;;;11.87;75.49;99333.72;4950029;28;20503;-93
2023/10/29 03:39:36;;;;;;;5.88;3.55;;;;;;;11.78;75.20;99318.38;4965963;28;20105;-93
2023/10/29 03:42:04;;;;;;;9.68;3.88;;;;;;;11.72;75.01;99309.50;4949819;28;20037;-94
2023/10/29 03:44:30;;;;;;;6.63;4.13;;;;;;;11.74;75.34;99328.91;4966709;28;20054;-93
2023/10/29 03:46:57;;;;;;;6.18;3.33;;;;;;;11.68;75.37;99322.75;4950071;28;20031;-93
2023/10/29 03:49:24;;;;;;;8.98;3.75;;;;;;;11.68;75.40;99327.31;4966777;28;20022;-96
2023/10/29 03:51:50;;;;;;;6.65;3.97;;;;;;;11.63;75.20;99322.75;4966769;28;20022;-96
2023/10/29 03:54:16;;;;;;;6.38;3.70;;;;;;;11.63;75.24;99321.94;4950819;28;20023;-94
2023/10/29 03:56:42;;;;;;;9.23;3.80;;;;;;;11.73;74.89;99341.59;4966792;28;20158;-94
2023/10/29 03:59:08;;;;;;;5.93;3.28;;;;;;;11.77;74.72;99336.47;4949460;28;20113;-94
2023/10/29 04:01:34;;;;;;;6.38;2.95;;;;;;;11.80;74.54;99337.78;4950639;28;20037;-94
2023/10/29 04:03:59;;;;;;;4.22;3.10;;;;;;;11.84;74.34;99336.94;4966709;28;20109;-95
2023/10/29 04:06:25;;;;;;;5.53;3.20;;;;;;;11.91;74.27;99345.59;4965209;28;20413;-95
2023/10/29 04:08:50;;;;;;;8.15;6.00;;;;;;;11.89;74.54;99357.72;4965158;28;20026;-93
2023/10/29 04:11:16;;;;;;;6.57;4.03;;;;;;;11.82;74.11;99332.91;4949273;28;20405;-93
2023/10/29 04:13:41;;;;;;;6.50;4.15;;;;;;;11.88;73.83;99335.34;4965409;28;20499;-95
2023/10/29 04:16:07;;;;;;;6.38;3.92;;;;;;;11.71;74.65;99324.06;4950147;28;20034;-92
2023/10/29 04:18:35;;;;;;;8.65;3.60;;;;;;;11.88;74.79;99359.63;4948390;28;20229;-94
2023/10/29 04:21:03;;;;;;;6.03;3.55;;;;;;;11.72;74.38;99344.56;4948456;28;20018;-94
2023/10/29 04:23:29;;;;;;;11.68;4.10;;;;;;;11.75;75.04;99367.50;4949032;28;20069;-94
2023/10/29 04:25:57;;;;;;;7.93;4.32;;;;;;;11.61;74.90;99346.50;4949693;28;20036;-93
2023/10/29 04:28:22;;;;;;;8.38;3.47;;;;;;;11.64;75.09;99356.75;4949086;28;20022;-94
2023/10/29 04:30:49;;;;;;;12.48;3.53;;;;;;;11.79;74.60;99376.66;4964606;28;20037;-92
2023/10/29 04:33:14;;;;;;;8.23;4.20;;;;;;;11.71;74.63;99378.03;4964982;28;20033;-93
2023/10/29 04:35:40;;;;;;;6.63;3.78;;;;;;;11.54;74.50;99354.09;4965278;28;20026;-95
2023/10/29 04:38:08;;;;;;;8.70;3.83;;;;;;;11.56;74.37;99365.41;4948815;28;20093;-93
2023/10/29 04:40:34;;;;;;;6.65;3.63;;;;;;;11.52;74.44;99367.03;4964125;28;20022;-94
2023/10/29 04:43:02;;;;;;;5.47;3.58;;;;;;;11.41;74.67;99363.53;4949377;28;20089;-94
2023/10/29 04:45:30;;;;;;;7.47;5.15;;;;;;;11.42;74.33;99369.75;4964552;28;20032;-95
2023/10/29 04:47:58;;;;;;;11.57;7.15;;;;;;;11.15;74.77;99353.91;4948477;28;20026;-94
2023/10/29 04:50:24;;;;;;;5.95;3.30;;;;;;;11.25;74.48;99362.00;4963871;28;20042;-92
2023/10/29 04:52:50;;;;;;;9.95;2.78;;;;;;;11.39;74.62;99406.13;4948588;28;20028;-94
2023/10/29 04:55:18;;;;;;;8.70;3.33;;;;;;;11.20;74.85;99384.34;4948142;28;20485;-93
2023/10/29 04:57:43;;;;;;;9.13;3.50;;;;;;;11.26;74.61;99395.94;4967043;28;20456;-95
2023/10/29 05:00:09;;;;;;;9.05;3.67;;;;;;;11.26;74.99;99394.03;4963816;28;20033;-94
2023/10/29 05:02:38;;;;;;;6.13;3.28;;;;;;;11.31;75.25;99402.13;4949408;28;20018;-92
2023/10/29 05:05:07;;;;;;;8.82;3.92;;;;;;;11.38;74.93;99412.63;4950874;28;20037;-94
2023/10/29 05:07:36;;;;;;;5.28;3.17;;;;;;;11.13;75.54;99394.59;4949754;28;20034;-95
2023/10/29 05:10:03;;;;;;;5.63;3.35;;;;;;;11.12;75.46;99399.19;4948784;28;20038;-93
2023/10/29 05:12:29;;;;;;;18.67;3.78;;;;;;;11.20;75.27;99415.88;4963526;28;20042;-93
2023/10/29 05:14:55;;;;;;;7.40;3.63;;;;;;;11.20;75.08;99419.38;4949675;28;20037;-95
2023/10/29 05:17:20;;;;;;;7.72;3.92;;;;;;;11.10;75.07;99414.84;4963860;28;20460;-95
2023/10/29 05:19:46;;;;;;;11.60;4.25;;;;;;;10.98;74.85;99408.91;4963549;28;20496;-94
2023/10/29 05:22:11;;;;;;;9.65;4.15;;;;;;;11.00;74.76;99414.00;4964144;28;20018;-94
2023/10/29 05:24:37;;;;;;;7.35;4.05;;;;;;;11.01;74.98;99435.28;4948401;28;20061;-94
2023/10/29 05:27:03;;;;;;;5.88;3.85;;;;;;;10.95;74.77;99420.22;4963415;28;20034;-93
2023/10/29 05:29:29;;;;;;;8.20;3.88;;;;;;;10.96;74.83;99423.69;4963301;28;20025;-92
2023/10/29 05:31:54;;;;;;;13.02;4.68;;;;;;;10.85;74.49;99415.66;4947250;28;20026;-93
2023/10/29 05:34:20;;;;;;;9.10;5.05;;;;;;;10.90;75.39;99433.69;4947238;28;20033;-94
2023/10/29 05:36:45;;;;;;;11.68;5.25;;;;;;;10.89;75.67;99440.13;4947083;28;20042;-94
2023/10/29 05:39:14;;;;;;;9.95;5.88;;;;;;;10.96;75.60;99459.56;4947533;28;20034;-94
2023/10/29 05:41:40;;;;;;;17.92;8.25;;;;;;;10.84;75.61;99432.88;4963430;28;20049;-95
2023/10/29 05:44:06;;;;;;;14.98;7.05;;;;;;;10.97;75.31;99450.38;4949628;28;20030;-94
2023/10/29 05:46:32;;;;;;;12.13;5.93;;;;;;;10.97;75.12;99449.56;4950298;28;20037;-95
2023/10/29 05:48:58;;;;;;;15.07;6.82;;;;;;;10.92;75.64;99447.69;4966858;28;20022;-93
2023/10/29 05:51:23;;;;;;;15.02;7.65;;;;;;;11.10;75.42;99473.28;4948751;28;20030;-94
2023/10/29 05:53:49;;;;;;;16.23;8.05;;;;;;;11.05;75.55;99463.31;4949437;28;20041;-94
2023/10/29 05:56:18;;;;;;;18.55;9.00;;;;;;;10.94;75.49;99452.81;4965353;28;20477;-94
2023/10/29 05:58:43;;;;;;;13.80;7.18;;;;;;;11.16;75.65;99479.50;4965914;28;20069;-95
2023/10/29 06:01:10;;;;;;;14.73;7.38;;;;;;;11.08;75.56;99468.19;4948533;28;20030;-94
2023/10/29 06:03:36;;;;;;;16.88;7.47;;;;;;;11.27;75.60;99491.91;4967067;28;20113;-95
2023/10/29 06:06:02;;;;;;;14.73;7.05;;;;;;;11.09;75.89;99468.97;4949585;28;20104;-94
2023/10/29 06:08:27;;;;;;;18.33;7.05;;;;;;;11.05;76.17;99446.34;4964672;28;20090;-94
2023/10/29 06:10:53;;;;;;;23.88;7.75;;;;;;;11.21;75.87;99466.03;4948440;28;20054;-92
2023/10/29 06:13:19;;;;;;;13.40;7.13;;;;;;;11.28;75.69;99466.56;4949046;28;20018;-93
2023/10/29 06:15:44;;;;;;;14.43;6.97;;;;;;;11.41;75.10;99460.59;4949929;28;20018;-94
2023/10/29 06:18:10;;;;;;;15.88;8.57;;;;;;;11.53;74.94;99465.72;4966618;28;20504;-95
2023/10/29 06:20:41;;;;;;;14.40;7.90;;;;;;;11.59;74.50;99461.91;4963619;28;20030;-94
2023/10/29 06:23:08;;;;;;;14.65;6.78;;;;;;;11.69;74.44;99474.59;4948023;28;20026;-95
2023/10/29 06:25:34;;;;;;;13.35;7.47;;;;;;;11.80;74.33;99472.66;4964891;28;20089;-91
2023/10/29 06:27:59;;;;;;;15.75;6.88;;;;;;;11.86;74.32;99485.88;4949575;28;20018;-94
2023/10/29 06:30:28;;;;;;;16.50;6.50;;;;;;;12.02;73.71;99492.06;4963707;28;20037;-94
2023/10/29 06:32:54;;;;;;;11.85;6.60;;;;;;;11.98;73.95;99472.09;4948259;28;20480;-92
2023/10/29 06:35:19;;;;;;;15.98;6.13;;;;;;;12.14;73.31;99478.28;4948435;28;20034;-92
2023/10/29 06:37:45;;;;;;;13.98;7.82;;;;;;;12.24;73.29;99482.78;4964614;28;20117;-94
2023/10/29 06:40:11;;;;;;;12.65;6.05;;;;;;;12.53;72.33;99507.22;4947396;28;20085;-94
2023/10/29 06:42:38;;;;;;;11.13;5.47;;;;;;;12.46;71.18;99460.84;4964469;28;20097;-93
2023/10/29 06:45:07;;;;;;;9.80;5.65;;;;;;;12.68;71.69;99482.84;4950329;28;20093;-94
2023/10/29 06:47:33;;;;;;;11.75;6.07;;;;;;;12.81;71.15;99476.00;4949987;28;20022;-96
2023/10/29 06:49:58;;;;;;;15.05;8.43;;;;;;;13.11;70.96;99503.91;4949534;28;20033;-95
2023/10/29 06:52:24;;;;;;;14.13;5.68;;;;;;;13.25;69.77;99506.78;4964656;28;20022;-94
2023/10/29 06:54:53;;;;;;;7.88;4.65;;;;;;;13.39;68.44;99505.06;4966814;28;20022;-95
2023/10/29 06:57:19;;;;;;;8.70;5.45;;;;;;;13.58;67.82;99513.28;4966630;28;20038;-92
2023/10/29 06:59:45;;;;;;;15.60;6.13;;;;;;;13.71;67.37;99500.97;4951559;28;20369;-94
2023/10/29 07:02:10;;;;;;;12.57;5.53;;;;;;;13.79;67.41;99504.97;4966624;28;20110;-95
2023/10/29 07:04:36;;;;;;;15.90;6.25;;;;;;;13.89;67.46;99505.66;4965453;28;20117;-94
2023/10/29 07:07:11;;;;;;;16.20;6.55;;;;;;;13.99;67.33;99512.88;4949977;28;20050;-94
2023/10/29 07:09:39;;;;;;;16.30;5.82;;;;;;;13.98;67.29;99505.84;4981531;28;20030;-95
2023/10/29 07:12:07;;;;;;;15.13;6.00;;;;;;;14.07;66.85;99523.09;4980979;28;20039;-95
2023/10/29 07:14:36;;;;;;;15.43;6.70;;;;;;;14.14;66.52;99522.72;4964985;28;20093;-96
2023/10/29 07:17:01;;;;;;;11.27;5.70;;;;;;;14.22;66.36;99519.38;4981063;28;20053;-94
2023/10/29 07:19:27;;;;;;;12.38;6.22;;;;;;;14.32;65.84;99515.75;4979528;28;20486;-94
2023/10/29 07:21:55;;;;;;;13.68;6.93;;;;;;;14.46;65.76;99529.38;4983017;28;20037;-95
2023/10/29 07:24:23;;;;;;;13.30;6.65;;;;;;;14.51;65.97;99513.09;4967232;28;20053;-95
2023/10/29 07:26:49;;;;;;;12.88;6.85;;;;;;;14.57;65.48;99501.09;4967525;28;20030;-96
2023/10/29 07:29:14;;;;;;;24.38;7.72;;;;;;;14.59;65.49;99508.94;4951464;28;20116;-95
2023/10/29 07:31:40;;;;;;;14.75;7.47;;;;;;;14.78;65.66;99515.19;4983718;28;20093;-95
2023/10/29 07:34:06;;;;;;;14.95;7.28;;;;;;;14.90;64.52;99526.41;4984268;28;20029;-94
2023/10/29 07:36:31;;;;;;;12.45;5.25;;;;;;;14.92;64.14;99516.06;4968920;28;20030;-95
2023/10/29 07:38:57;;;;;;;8.75;5.40;;;;;;;15.09;63.22;99518.25;5003288;28;20034;-95
2023/10/29 07:41:23;;;;;;;9.13;4.93;;;;;;;15.24;62.74;99521.81;4953189;28;20113;-95
2023/10/29 07:43:54;;;;;;;8.40;4.57;;;;;;;15.42;61.92;99525.59;4953644;28;20041;-95
2023/10/29 07:46:20;;;;;;;8.73;4.50;;;;;;;15.50;61.48;99525.72;4955960;28;20027;-95
2023/10/29 07:48:46;;;;;;;8.82;4.15;;;;;;;15.75;61.52;99546.22;4971236;28;20121;-96
2023/10/29 07:54:53;;;;;;;14.68;8.07;;;;;;;15.83;60.74;99522.19;4893408;29;20579;-96
2023/10/29 07:57:29;;;;;;;13.57;4.95;;;;;;;15.96;60.61;99538.53;4907188;29;20036;-96
2023/10/29 08:00:09;;;;;;;6.47;2.40;;;;;;;16.05;58.84;99533.19;4912081;29;20435;-94
2023/10/29 08:02:54;;;;;;;5.65;2.80;;;;;;;16.39;58.40;99558.34;4910847;29;20095;-94
2023/10/29 08:05:43;;;;;;;7.35;3.75;;;;;;;16.49;57.85;99556.22;4925095;29;20032;-96
2023/10/29 08:08:37;;;;;;;9.68;4.82;;;;;;;16.64;57.95;99557.03;4933136;29;20028;-95
2023/10/29 08:11:06;;;;;;;12.32;6.05;;;;;;;16.67;57.94;99542.84;4918216;29;20040;-95
2023/10/29 08:13:43;;;;;;;9.57;6.00;;;;;;;16.82;58.18;99558.03;4953594;28;20038;-94
2023/10/29 08:16:42;;;;;;;;;;;;;;;;;;;;;
2023/10/29 08:19:49;;;;;;;11.63;5.38;;;;;;;16.80;57.23;99520.22;4930218;28;20046;-96
2023/10/29 08:22:19;;;;;;;13.77;6.88;;;;;;;17.01;57.58;99539.66;4936428;28;20117;-95
2023/10/29 08:24:50;;;;;;;11.07;6.00;;;;;;;17.19;56.98;99558.84;4948807;28;20071;-94
2023/10/29 08:27:32;;;;;;;10.73;5.43;;;;;;;17.12;56.71;99522.00;5000208;28;20026;-96
2023/10/29 08:37:37;;;;;;;8.77;3.75;;;;;;;17.65;54.15;99534.03;4865430;29;20030;-95
2023/10/29 08:40:13;;;;;;;5.97;3.00;;;;;;;17.69;52.91;99523.31;4741287;30;20056;-95
2023/10/29 08:42:56;;;;;;;10.88;3.47;;;;;;;17.77;53.41;99523.34;4829186;29;20521;-95
2023/10/29 08:45:31;;;;;;;7.10;3.05;;;;;;;18.02;52.85;99539.38;4869377;29;20521;-95
2023/10/29 08:48:13;;;;;;;7.43;3.20;;;;;;;17.98;52.80;99520.13;4894199;29;20063;-95
2023/10/29 08:50:49;;;;;;;7.20;3.28;;;;;;;18.12;52.07;99528.22;4940212;29;20131;-94
2023/10/29 08:53:39;;;;;;;;;;;;;;;;;;;;;
2023/10/29 08:57:01;;;;;;;;;;;;;;;;;;;;;
2023/10/29 08:59:41;;;;;;;2.83;1.80;;;;;;;18.55;51.10;99541.13;4936979;29;20055;-93
2023/10/29 09:02:52;;;;;;;4.65;1.90;;;;;;;18.51;50.97;99523.81;4909855;29;20040;-96
2023/10/29 09:05:23;;;;;;;5.55;2.00;;;;;;;18.63;50.67;99517.75;4867788;29;20124;-96
2023/10/29 09:08:57;;;;;;;7.20;2.63;;;;;;;18.73;50.29;99511.97;4949903;28;20038;-96
2023/10/29 09:11:39;;;;;;;3.63;1.55;;;;;;;18.94;49.44;99534.00;4873530;29;20049;-96
2023/10/29 09:14:10;;;;;;;;;;;;;;;19.16;48.73;99547.50;4853717;29;20078;-93
2023/10/29 09:16:50;;;;;;;;;;;;;;;;;;;;;
2023/10/29 09:19:19;;;;;;;8.80;3.38;;;;;;;19.32;48.40;99545.09;4931529;29;20122;-95
2023/10/29 09:21:48;;;;;;;4.53;1.92;;;;;;;19.27;48.19;99525.34;4910662;29;20046;-95
2023/10/29 09:24:16;;;;;;;3.58;1.73;;;;;;;19.39;47.39;99523.56;4912124;29;20047;-95
2023/10/29 09:26:57;;;;;;;7.07;1.83;;;;;;;19.56;47.12;99535.56;4941309;29;20079;-95
2023/10/29 09:29:42;;;;;;;5.65;1.50;;;;;;;19.77;45.85;99531.03;4943892;29;20037;-95
2023/10/29 09:39:33;;;;;;;4.78;1.50;;;;;;;20.04;45.27;99520.84;4935512;29;20102;-94
2023/10/29 09:42:08;;;;;;;3.70;1.45;;;;;;;20.02;44.52;99501.22;4937671;29;20047;-96
2023/10/29 09:44:42;;;;;;;2.63;1.50;;;;;;;20.27;44.15;99529.56;4936934;28;20038;-93
2023/10/29 09:47:32;;;;;;;3.78;1.95;;;;;;;20.33;43.50;99527.47;4981065;28;20413;-96
2023/10/29 09:50:02;;;;;;;4.03;2.22;;;;;;;20.21;42.76;99503.53;4982943;28;20112;-96
2023/10/29 09:53:01;;;;;;;3.10;1.30;;;;;;;20.32;43.38;99513.00;4979870;28;20026;-92
2023/10/29 09:55:53;;;;;;;;;;;;;;;;;;;;;
2023/10/29 09:58:41;;;;;;;3.50;1.75;;;;;;;20.42;43.16;99505.53;4910657;29;20046;-96
2023/10/29 10:01:08;;;;;;;5.03;2.00;;;;;;;20.46;42.80;99510.03;4895143;29;20126;-94
2023/10/29 10:03:35;;;;;;;4.68;2.22;;;;;;;20.58;43.07;99533.94;4889767;29;20072;-94
2023/10/29 10:06:04;;;;;;;3.22;1.63;;;;;;;20.67;42.36;99529.22;4891379;29;20062;-94
2023/10/29 10:08:30;;;;;;;2.38;1.15;;;;;;;20.63;41.68;99517.34;4904992;29;20035;-96
2023/10/29 10:10:59;;;;;;;2.35;1.13;;;;;;;20.67;41.73;99515.53;4890771;29;20035;-94
2023/10/29 10:14:12;;;;;;;2.65;1.00;;;;;;;20.75;41.51;99511.94;4890889;29;20083;-93
2023/10/29 10:16:45;;;;;;;2.78;1.30;;;;;;;20.74;41.79;99502.13;4902991;29;20063;-96
2023/10/29 10:19:28;;;;;;;1.10;0.93;;;;;;;20.82;40.22;99508.69;4887254;29;20063;-90
2023/10/29 10:21:54;;;;;;;3.45;1.27;;;;;;;20.83;41.00;99504.78;4916248;29;20109;-92
2023/10/29 10:24:21;;;;;;;1.80;0.90;;;;;;;20.82;41.00;99496.94;4901557;29;20117;-94
2023/10/29 10:27:09;;;;;;;3.55;1.15;;;;;;;21.01;41.01;99521.88;4929380;29;20043;-92
2023/10/29 10:29:39;;;;;;;1.83;1.17;;;;;;;20.95;41.01;99506.78;4940511;29;20039;-94
2023/10/29 10:32:08;;;;;;;4.20;0.90;;;;;;;20.87;40.04;99491.25;4943155;29;20039;-95
2023/10/29 10:34:34;;;;;;;1.98;1.08;;;;;;;20.91;40.49;99484.75;4914255;29;20109;-93
2023/10/29 10:37:12;;;;;;;3.40;0.95;;;;;;;20.98;40.68;99485.03;4908315;29;20047;-94
2023/10/29 10:39:39;;;;;;;3.13;1.20;;;;;;;20.90;40.10;99472.22;4909518;29;20027;-94
2023/10/29 10:42:34;;;;;;;3.83;1.20;;;;;;;21.02;40.42;99479.66;4910674;29;20047;-95
2023/10/29 10:45:15;;;;;;;;;;;;;;;;;;;;;
2023/10/29 10:51:00;;;;;;;2.75;1.30;;;;;;;21.07;39.74;99465.78;4966087;28;20045;-96
2023/10/29 10:53:31;;;;;;;1.98;1.00;;;;;;;21.13;40.02;99474.59;4961446;28;20058;-96
2023/10/29 10:56:18;;;;;;;;;;;;;;;;;;;;;
2023/10/29 10:58:50;;;;;;;3.35;1.30;;;;;;;21.10;40.00;99465.09;4948191;29;20013;-93
2023/10/29 11:08:26;;;;;;;4.88;1.10;;;;;;;21.27;39.67;99482.50;4954225;29;20074;-96
2023/10/29 11:11:02;;;;;;;3.55;1.23;;;;;;;21.33;39.77;99481.16;4950844;28;20023;-94
2023/10/29 11:13:34;;;;;;;3.08;1.10;;;;;;;21.36;39.69;99481.28;4932035;29;20087;-96
2023/10/29 11:16:07;;;;;;;4.75;1.10;;;;;;;21.23;39.58;99456.94;4914046;29;20039;-94
2023/10/29 11:18:32;;;;;;;2.92;1.20;;;;;;;21.35;39.83;99471.50;4915690;29;20040;-95
2023/10/29 11:21:08;;;;;;;5.15;1.30;;;;;;;21.35;39.53;99466.00;4946196;28;20031;-96
2023/10/29 11:24:01;;;;;;;5.30;1.60;;;;;;;21.49;39.71;99482.16;4954323;28;20034;-95
2023/10/29 11:26:30;;;;;;;5.78;2.60;;;;;;;21.38;39.35;99459.84;4982265;28;20026;-93
2023/10/29 11:32:41;;;;;;;2.85;1.30;;;;;;;21.38;39.18;99448.88;4928686;29;20461;-94
2023/10/29 11:35:29;;;;;;;4.47;1.10;;;;;;;21.44;38.63;99441.28;4901675;29;20027;-95
2023/10/29 11:38:46;;;;;;;;;;;;;;;;;;;;;
2023/10/29 11:41:35;;;;;;;4.50;1.13;;;;;;;21.52;38.73;99448.59;4945006;29;20565;-96
2023/10/29 11:44:32;;;;;;;;;;;;;;;;;;;;;
2023/10/29 11:50:16;;;;;;;2.92;1.10;;;;;;;21.65;39.16;99457.66;4932693;29;20066;-96
2023/10/29 11:52:42;;;;;;;4.63;1.33;;;;;;;21.57;38.94;99442.09;4927131;29;20125;-94
2023/10/29 11:55:09;;;;;;;5.63;1.20;;;;;;;21.56;38.79;99432.25;4896544;29;20034;-95
2023/10/29 11:57:40;;;;;;;3.05;1.00;;;;;;;21.60;38.31;99433.19;4914405;29;20075;-96
2023/10/29 12:00:09;;;;;;;4.95;1.10;;;;;;;21.62;38.18;99433.66;4898320;29;20047;-95
2023/10/29 12:02:37;;;;;;;4.97;1.42;;;;;;;21.83;37.94;99454.69;4945130;28;20034;-95
2023/10/29 12:05:37;;;;;;;2.63;0.93;;;;;;;21.66;38.22;99431.81;4974382;28;20018;-95
2023/10/29 12:08:10;;;;;;;2.67;1.13;;;;;;;21.65;38.38;99430.25;4968699;28;20587;-94
2023/10/29 12:10:47;;;;;;;2.67;1.10;;;;;;;21.75;38.43;99440.75;4952047;28;20026;-95
2023/10/29 12:13:18;;;;;;;3.17;1.60;;;;;;;21.87;37.83;99450.13;4949183;28;20042;-95
2023/10/29 12:16:08;;;;;;;2.33;1.10;;;;;;;21.77;38.21;99430.25;4951867;28;20034;-95
2023/10/29 12:18:36;;;;;;;2.38;0.95;;;;;;;21.90;38.14;99452.97;4947350;28;20061;-94
2023/10/29 12:21:13;;;;;;;2.17;1.05;;;;;;;21.82;38.18;99426.47;4964142;28;20125;-93
2023/10/29 12:23:39;;;;;;;2.30;0.90;;;;;;;21.88;37.36;99427.06;4967460;28;20547;-94
2023/10/29 12:26:06;;;;;;;3.10;1.05;;;;;;;21.95;37.66;99430.00;4948902;28;20117;-95
2023/10/29 12:28:38;;;;;;;3.08;1.00;;;;;;;22.00;37.23;99435.28;4949813;28;20038;-95
2023/10/29 12:31:03;;;;;;;2.25;0.90;;;;;;;22.05;37.46;99439.72;4966239;28;20058;-94
2023/10/29 12:33:33;;;;;;;2.85;1.10;;;;;;;22.08;37.26;99431.63;4949841;28;20038;-93